createdAt,value
2017-10-03T00:01:07.939Z,99.90
2017-10-03T00:03:34.469Z,99.90
2017-10-03T00:06:01.673Z,99.90
2017-10-03T00:08:28.093Z,99.90
2017-10-03T00:10:54.593Z,99.90
2017-10-03T00:13:21.006Z,99.90
2017-10-03T00:15:54.314Z,99.90
2017-10-03T00:18:20.741Z,99.90
2017-10-03T00:20:47.927Z,99.90
2017-10-03T00:23:14.319Z,99.90
2017-10-03T00:25:41.511Z,99.90
2017-10-03T00:28:07.950Z,99.90
2017-10-03T00:30:35.126Z,99.90
2017-10-03T00:33:01.556Z,99.90
2017-10-03T00:35:28.712Z,99.90
2017-10-03T00:37:55.883Z,99.90
2017-10-03T00:40:22.459Z,99.90
2017-10-03T00:42:48.878Z,99.90
2017-10-03T00:45:16.066Z,99.90
2017-10-03T00:47:42.480Z,99.90
2017-10-03T00:50:08.947Z,99.90
2017-10-03T00:52:35.350Z,99.90
2017-10-03T00:55:02.646Z,99.90
2017-10-03T00:57:29.227Z,99.90
2017-10-03T00:59:55.645Z,99.90
2017-10-03T01:02:22.122Z,99.90
2017-10-03T01:04:48.566Z,99.90
2017-10-03T01:07:15.011Z,99.90
2017-10-03T01:09:41.464Z,99.90
2017-10-03T01:12:08.677Z,99.90
2017-10-03T01:14:35.150Z,99.90
2017-10-03T01:17:01.565Z,99.90
2017-10-03T01:19:28.007Z,99.90
2017-10-03T01:21:54.487Z,99.90
2017-10-03T01:24:21.686Z,99.90
2017-10-03T01:26:48.121Z,99.90
2017-10-03T01:29:15.305Z,99.90
2017-10-03T01:31:42.097Z,99.90
2017-10-03T01:34:08.528Z,99.90
2017-10-03T01:36:34.993Z,99.90
2017-10-03T01:39:01.492Z,99.90
2017-10-03T01:41:27.958Z,99.90
2017-10-03T01:43:55.139Z,99.90
2017-10-03T01:46:22.331Z,99.90
2017-10-03T01:48:49.478Z,99.90
2017-10-03T01:51:16.698Z,99.90
2017-10-03T01:53:43.115Z,99.90
2017-10-03T01:56:09.792Z,99.90
2017-10-03T01:58:36.293Z,99.90
2017-10-03T02:01:02.802Z,99.90
2017-10-03T02:03:29.285Z,99.90
2017-10-03T02:05:55.733Z,99.90
2017-10-03T02:08:22.181Z,99.90
2017-10-03T02:10:48.676Z,99.90
2017-10-03T02:13:15.095Z,99.90
2017-10-03T02:15:41.506Z,99.90
2017-10-03T02:18:07.975Z,99.90
2017-10-03T02:20:34.415Z,99.90
2017-10-03T02:23:00.846Z,99.90
2017-10-03T02:25:27.279Z,99.90
2017-10-03T02:27:54.434Z,99.90
2017-10-03T02:30:20.902Z,99.90
2017-10-03T02:32:47.318Z,99.90
2017-10-03T02:35:14.459Z,99.90
2017-10-03T02:37:40.902Z,99.90
2017-10-03T02:40:07.406Z,99.90
2017-10-03T02:42:33.870Z,99.90
2017-10-03T02:45:00.247Z,99.90
2017-10-03T02:47:26.690Z,99.90
2017-10-03T02:49:53.126Z,99.90
2017-10-03T02:52:19.562Z,99.90
2017-10-03T02:54:45.993Z,99.90
2017-10-03T02:57:12.432Z,99.90
2017-10-03T02:59:39.185Z,99.90
2017-10-03T03:02:06.638Z,99.90
2017-10-03T03:04:33.031Z,99.90
2017-10-03T03:06:59.501Z,99.90
2017-10-03T03:09:25.936Z,99.90
2017-10-03T03:11:52.335Z,99.90
2017-10-03T03:14:18.778Z,99.90
2017-10-03T03:16:45.923Z,99.90
2017-10-03T03:19:12.325Z,99.90
2017-10-03T03:21:39.434Z,99.90
2017-10-03T03:24:05.955Z,99.90
2017-10-03T03:26:33.503Z,99.90
2017-10-03T03:29:00.773Z,99.90
2017-10-03T03:31:27.175Z,99.90
2017-10-03T03:33:53.644Z,99.90
2017-10-03T03:36:20.062Z,99.90
2017-10-03T03:38:46.541Z,99.90
2017-10-03T03:41:12.949Z,99.90
2017-10-03T03:43:39.696Z,99.90
2017-10-03T03:46:06.121Z,99.90
2017-10-03T03:48:33.312Z,99.90
2017-10-03T03:51:00.437Z,99.90
2017-10-03T03:53:27.689Z,99.90
2017-10-03T03:55:54.077Z,99.90
2017-10-03T03:58:20.483Z,99.90
2017-10-03T04:00:47.648Z,99.90
2017-10-03T04:03:14.807Z,99.90
2017-10-03T04:05:41.186Z,99.90
2017-10-03T04:08:07.615Z,99.90
2017-10-03T04:10:34.078Z,99.90
2017-10-03T04:13:00.621Z,99.90
2017-10-03T04:15:27.922Z,99.90
2017-10-03T04:17:54.367Z,99.90
2017-10-03T04:20:20.817Z,99.90
2017-10-03T04:22:47.243Z,99.90
2017-10-03T04:25:13.670Z,99.90
2017-10-03T04:27:40.162Z,99.90
2017-10-03T04:30:06.595Z,99.90
2017-10-03T04:32:33.034Z,99.90
2017-10-03T04:35:00.930Z,99.90
2017-10-03T04:37:27.418Z,99.90
2017-10-03T04:40:00.818Z,99.90
2017-10-03T04:42:27.238Z,99.90
2017-10-03T04:44:54.397Z,99.90
2017-10-03T04:47:21.535Z,99.90
2017-10-03T04:49:48.719Z,99.90
2017-10-03T04:52:15.907Z,99.90
2017-10-03T04:54:42.398Z,99.90
2017-10-03T04:57:08.804Z,99.90
2017-10-03T04:59:35.248Z,99.90
2017-10-03T05:02:01.783Z,99.90
2017-10-03T05:04:28.267Z,99.90
2017-10-03T05:06:56.255Z,99.90
2017-10-03T05:09:23.542Z,99.90
2017-10-03T05:11:50.018Z,99.90
2017-10-03T05:14:16.606Z,99.90
2017-10-03T05:16:44.178Z,99.90
2017-10-03T05:19:12.289Z,99.90
2017-10-03T05:21:39.839Z,99.90
2017-10-03T05:24:07.010Z,99.90
2017-10-03T05:26:34.433Z,99.90
2017-10-03T05:29:01.532Z,99.90
2017-10-03T05:31:30.301Z,99.90
2017-10-03T05:33:57.819Z,99.90
2017-10-03T05:36:25.358Z,99.90
2017-10-03T05:38:54.195Z,99.90
2017-10-03T05:41:21.519Z,99.90
2017-10-03T05:43:48.124Z,99.90
2017-10-03T05:46:15.143Z,99.90
2017-10-03T05:48:41.628Z,99.90
2017-10-03T05:51:08.899Z,99.90
2017-10-03T05:53:35.474Z,99.90
2017-10-03T05:56:02.364Z,99.90
2017-10-03T05:58:29.595Z,99.90
2017-10-03T06:00:57.921Z,99.90
2017-10-03T06:03:25.198Z,99.90
2017-10-03T06:05:55.538Z,99.90
2017-10-03T06:08:23.619Z,99.90
2017-10-03T06:10:50.556Z,99.90
2017-10-03T06:13:20.514Z,99.90
2017-10-03T06:15:47.938Z,99.90
2017-10-03T06:18:14.483Z,99.90
2017-10-03T06:20:41.115Z,99.90
2017-10-03T06:23:07.629Z,99.90
2017-10-03T06:25:34.165Z,99.90
2017-10-03T06:28:00.710Z,99.90
2017-10-03T06:30:27.399Z,99.90
2017-10-03T06:32:54.849Z,99.90
2017-10-03T06:35:21.466Z,99.90
2017-10-03T06:37:49.026Z,99.90
2017-10-03T06:40:17.354Z,99.90
2017-10-03T06:42:44.699Z,99.90
2017-10-03T06:45:11.302Z,99.90
2017-10-03T06:47:37.925Z,99.90
2017-10-03T06:50:04.411Z,99.90
2017-10-03T06:52:31.039Z,99.90
2017-10-03T06:54:58.204Z,99.90
2017-10-03T06:57:25.596Z,99.90
2017-10-03T06:59:52.178Z,99.90
2017-10-03T07:02:18.883Z,99.90
2017-10-03T07:04:45.738Z,99.90
2017-10-03T07:07:13.334Z,99.90
2017-10-03T07:09:39.869Z,99.90
2017-10-03T07:12:06.383Z,99.90
2017-10-03T07:14:33.766Z,99.90
2017-10-03T07:17:00.366Z,99.90
2017-10-03T07:19:27.934Z,99.90
2017-10-03T07:21:54.573Z,99.90
2017-10-03T07:24:21.257Z,99.90
2017-10-03T07:26:47.754Z,99.90
2017-10-03T07:29:15.213Z,99.90
2017-10-03T07:31:42.441Z,99.90
2017-10-03T07:34:10.955Z,99.90
2017-10-03T07:36:37.483Z,99.90
2017-10-03T07:39:04.078Z,99.70
2017-10-03T07:41:30.700Z,98.90
2017-10-03T07:43:57.991Z,98.40
2017-10-03T07:46:25.236Z,99.30
2017-10-03T07:48:51.961Z,99.20
2017-10-03T07:51:19.316Z,98.60
2017-10-03T07:53:45.844Z,98.60
2017-10-03T07:56:13.025Z,98.00
2017-10-03T07:58:40.552Z,99.40
2017-10-03T08:01:07.767Z,98.40
2017-10-03T08:03:35.103Z,98.10
2017-10-03T08:06:02.328Z,98.10
2017-10-03T08:08:30.546Z,98.60
2017-10-03T08:10:59.263Z,97.60
2017-10-03T08:13:26.656Z,97.30
2017-10-03T08:15:53.185Z,97.30
2017-10-03T08:18:21.586Z,97.70
2017-10-03T08:20:48.260Z,97.70
2017-10-03T08:23:14.799Z,97.00
2017-10-03T08:25:41.405Z,96.30
2017-10-03T08:28:08.699Z,97.30
2017-10-03T08:30:35.969Z,97.30
2017-10-03T08:33:02.540Z,96.50
2017-10-03T08:35:30.522Z,95.00
2017-10-03T08:37:57.003Z,95.00
2017-10-03T08:40:24.515Z,95.60
2017-10-03T08:42:51.043Z,93.20
2017-10-03T08:45:19.059Z,92.40
2017-10-03T08:47:45.957Z,94.50
2017-10-03T08:50:15.090Z,92.60
2017-10-03T08:52:42.333Z,92.30
2017-10-03T08:55:09.632Z,93.80
2017-10-03T08:57:36.224Z,93.90
2017-10-03T09:00:02.805Z,93.40
2017-10-03T09:02:31.785Z,90.40
2017-10-03T09:04:58.315Z,90.40
2017-10-03T09:07:25.795Z,90.20
2017-10-03T09:09:52.331Z,90.20
2017-10-03T09:12:18.958Z,89.20
2017-10-03T09:14:45.512Z,91.40
2017-10-03T09:17:12.179Z,91.60
2017-10-03T09:19:40.247Z,90.40
2017-10-03T09:22:07.378Z,90.40
2017-10-03T09:24:33.854Z,90.60
2017-10-03T09:27:00.498Z,86.30
2017-10-03T09:29:27.868Z,83.20
2017-10-03T09:31:54.418Z,83.30
2017-10-03T09:34:20.916Z,84.90
2017-10-03T09:36:47.366Z,81.50
2017-10-03T09:39:13.822Z,81.30
2017-10-03T09:41:40.386Z,81.90
2017-10-03T09:44:07.017Z,83.40
2017-10-03T09:46:33.873Z,82.40
2017-10-03T09:49:00.411Z,81.30
2017-10-03T09:51:27.745Z,77.20
2017-10-03T09:53:55.781Z,76.20
2017-10-03T09:56:23.120Z,77.80
2017-10-03T09:58:49.605Z,77.20
2017-10-03T10:01:17.313Z,75.40
2017-10-03T10:03:45.429Z,75.40
2017-10-03T10:06:14.348Z,71.80
2017-10-03T10:08:41.680Z,69.40
2017-10-03T10:11:08.347Z,69.30
2017-10-03T10:13:34.782Z,66.80
2017-10-03T10:16:01.773Z,65.70
2017-10-03T10:18:30.043Z,68.10
2017-10-03T10:20:56.545Z,67.60
2017-10-03T10:23:24.796Z,68.80
2017-10-03T10:25:52.722Z,67.10
2017-10-03T10:28:19.318Z,67.10
2017-10-03T10:30:47.536Z,65.80
2017-10-03T10:33:14.887Z,69.70
2017-10-03T10:35:42.161Z,67.10
2017-10-03T10:38:08.772Z,67.30
2017-10-03T10:40:35.347Z,66.00
2017-10-03T10:43:02.436Z,66.00
2017-10-03T10:45:28.976Z,61.80
2017-10-03T10:47:56.084Z,61.90
2017-10-03T10:50:22.647Z,62.40
2017-10-03T10:52:49.304Z,65.00
2017-10-03T10:55:17.651Z,64.80
2017-10-03T10:57:45.122Z,64.80
2017-10-03T11:00:11.733Z,65.10
2017-10-03T11:02:38.326Z,65.00
2017-10-03T11:05:04.887Z,66.80
2017-10-03T11:07:31.588Z,66.80
2017-10-03T11:10:00.065Z,70.10
2017-10-03T11:12:27.564Z,70.00
2017-10-03T11:14:57.497Z,66.60
2017-10-03T11:17:24.705Z,65.40
2017-10-03T11:19:52.043Z,64.80
2017-10-03T11:22:18.784Z,64.80
2017-10-03T11:24:45.498Z,63.00
2017-10-03T11:27:12.122Z,63.50
2017-10-03T11:29:38.657Z,62.70
2017-10-03T11:32:06.223Z,62.70
2017-10-03T11:34:33.731Z,62.50
2017-10-03T11:37:01.176Z,60.00
2017-10-03T11:39:27.726Z,60.00
2017-10-03T11:41:54.721Z,61.10
2017-10-03T11:44:22.023Z,62.70
2017-10-03T11:46:50.232Z,62.70
2017-10-03T11:49:17.376Z,63.90
2017-10-03T11:51:44.631Z,61.00
2017-10-03T11:54:11.685Z,59.40
2017-10-03T11:56:38.655Z,57.10
2017-10-03T11:59:06.899Z,56.30
2017-10-03T12:01:37.382Z,56.30
2017-10-03T12:04:04.653Z,55.60
2017-10-03T12:06:31.911Z,56.00
2017-10-03T12:08:58.466Z,55.90
2017-10-03T12:11:25.802Z,57.10
2017-10-03T12:13:53.075Z,57.70
2017-10-03T12:16:21.260Z,55.80
2017-10-03T12:18:47.888Z,55.70
2017-10-03T12:21:16.592Z,56.50
2017-10-03T12:23:44.071Z,56.50
2017-10-03T12:26:13.629Z,55.40
2017-10-03T12:28:41.235Z,56.50
2017-10-03T12:31:08.956Z,56.70
2017-10-03T12:33:35.498Z,57.00
2017-10-03T12:36:02.515Z,55.20
2017-10-03T12:38:29.699Z,56.50
2017-10-03T12:40:56.384Z,54.20
2017-10-03T12:43:25.329Z,55.00
2017-10-03T12:45:51.802Z,55.10
2017-10-03T12:48:18.386Z,56.10
2017-10-03T12:50:44.907Z,56.20
2017-10-03T12:53:12.024Z,56.70
2017-10-03T12:55:38.576Z,58.70
2017-10-03T12:58:07.012Z,58.80
2017-10-03T13:00:34.314Z,59.90
2017-10-03T13:03:00.965Z,59.80
2017-10-03T13:05:27.494Z,61.10
2017-10-03T13:07:55.306Z,64.00
2017-10-03T13:10:22.195Z,63.70
2017-10-03T13:12:49.759Z,63.30
2017-10-03T13:15:16.678Z,59.40
2017-10-03T13:17:43.962Z,57.20
2017-10-03T13:20:11.546Z,57.20
2017-10-03T13:22:38.170Z,57.30
2017-10-03T13:25:04.654Z,57.90
2017-10-03T13:27:31.527Z,58.90
2017-10-03T13:29:58.182Z,59.80
2017-10-03T13:32:27.402Z,60.40
2017-10-03T13:34:54.875Z,60.30
2017-10-03T13:37:22.366Z,60.00
2017-10-03T13:39:49.946Z,60.50
2017-10-03T13:42:16.496Z,61.20
2017-10-03T13:44:43.574Z,61.90
2017-10-03T13:47:10.322Z,64.20
2017-10-03T13:49:39.030Z,64.70
2017-10-03T13:52:05.535Z,65.50
2017-10-03T13:54:32.859Z,68.70
2017-10-03T13:56:59.433Z,69.90
2017-10-03T13:59:25.926Z,69.60
2017-10-03T14:01:52.426Z,71.60
2017-10-03T14:04:18.948Z,71.60
2017-10-03T14:06:45.437Z,72.70
2017-10-03T14:09:11.931Z,73.80
2017-10-03T14:11:39.817Z,76.70
2017-10-03T14:14:07.294Z,76.30
2017-10-03T14:16:34.883Z,76.60
2017-10-03T14:19:02.702Z,77.10
2017-10-03T14:21:33.551Z,75.80
2017-10-03T14:24:01.956Z,77.20
2017-10-03T14:26:32.697Z,75.40
2017-10-03T14:29:01.667Z,74.50
2017-10-03T14:31:29.809Z,70.70
2017-10-03T14:33:58.015Z,70.00
2017-10-03T14:36:26.503Z,71.40
2017-10-03T14:38:57.949Z,71.40
2017-10-03T14:41:25.654Z,71.90
2017-10-03T14:43:52.762Z,72.80
2017-10-03T14:46:22.695Z,73.50
2017-10-03T14:48:49.297Z,75.00
2017-10-03T14:51:16.287Z,74.50
2017-10-03T14:53:42.818Z,73.50
2017-10-03T14:56:12.087Z,74.90
2017-10-03T14:58:40.091Z,74.40
2017-10-03T15:01:06.655Z,75.00
2017-10-03T15:03:33.160Z,75.70
2017-10-03T15:05:59.620Z,75.70
2017-10-03T15:08:26.300Z,75.30
2017-10-03T15:10:53.821Z,77.10
2017-10-03T15:13:20.415Z,78.00
2017-10-03T15:15:47.772Z,79.20
2017-10-03T15:18:14.983Z,79.80
2017-10-03T15:20:41.479Z,79.70
2017-10-03T15:23:08.654Z,80.00
2017-10-03T15:25:36.049Z,80.10
2017-10-03T15:28:02.531Z,80.10
2017-10-03T15:30:29.012Z,79.70
2017-10-03T15:32:55.690Z,79.70
2017-10-03T15:35:22.970Z,79.40
2017-10-03T15:37:50.203Z,78.20
2017-10-03T15:40:16.824Z,76.20
2017-10-03T15:42:43.515Z,75.90
2017-10-03T15:45:10.867Z,77.30
2017-10-03T15:47:39.621Z,76.50
2017-10-03T15:50:06.767Z,76.10
2017-10-03T15:52:33.330Z,76.90
2017-10-03T15:55:02.744Z,76.20
2017-10-03T15:57:30.058Z,76.00
2017-10-03T15:59:56.587Z,75.90
2017-10-03T16:02:23.100Z,75.80
2017-10-03T16:04:51.553Z,75.00
2017-10-03T16:07:18.595Z,75.40
2017-10-03T16:09:46.074Z,76.20
2017-10-03T16:12:12.861Z,78.00
2017-10-03T16:14:39.416Z,78.80
2017-10-03T16:17:07.689Z,81.90
2017-10-03T16:19:36.227Z,81.10
2017-10-03T16:22:03.322Z,82.80
2017-10-03T16:24:31.264Z,85.30
2017-10-03T16:27:00.797Z,86.60
2017-10-03T16:29:28.181Z,86.70
2017-10-03T16:31:54.650Z,87.80
2017-10-03T16:34:21.845Z,90.80
2017-10-03T16:36:48.406Z,90.40
2017-10-03T16:39:15.036Z,91.20
2017-10-03T16:41:41.653Z,92.10
2017-10-03T16:44:08.924Z,93.40
2017-10-03T16:46:36.070Z,93.40
2017-10-03T16:49:03.242Z,94.30
2017-10-03T16:51:29.950Z,94.30
2017-10-03T16:53:57.054Z,94.80
2017-10-03T16:56:23.642Z,95.30
2017-10-03T16:58:50.121Z,95.80
2017-10-03T17:01:16.675Z,96.20
2017-10-03T17:03:44.059Z,97.10
2017-10-03T17:06:10.770Z,96.90
2017-10-03T17:08:37.200Z,97.70
2017-10-03T17:11:03.758Z,97.80
2017-10-03T17:13:31.476Z,98.10
2017-10-03T17:15:58.476Z,98.50
2017-10-03T17:18:27.192Z,99.00
2017-10-03T17:20:54.700Z,99.30
2017-10-03T17:23:21.366Z,99.60
2017-10-03T17:25:48.914Z,99.90
2017-10-03T17:28:16.686Z,99.90
2017-10-03T17:30:44.158Z,99.90
2017-10-03T17:33:10.759Z,99.90
2017-10-03T17:35:38.225Z,99.90
2017-10-03T17:38:04.684Z,99.90
2017-10-03T17:40:32.623Z,99.90
2017-10-03T17:42:59.060Z,99.90
2017-10-03T17:45:25.477Z,99.90
2017-10-03T17:47:52.716Z,99.90
2017-10-03T17:50:19.132Z,99.90
2017-10-03T17:52:46.327Z,99.90
2017-10-03T17:55:13.495Z,98.50
2017-10-03T17:57:40.018Z,98.70
2017-10-03T18:00:07.926Z,97.00
2017-10-03T18:02:35.106Z,95.90
2017-10-03T18:05:01.581Z,95.90
2017-10-03T18:07:28.187Z,95.60
2017-10-03T18:09:54.615Z,95.40
2017-10-03T18:12:21.106Z,95.20
2017-10-03T18:14:47.587Z,94.80
2017-10-03T18:17:14.006Z,94.70
2017-10-03T18:19:40.466Z,94.50
2017-10-03T18:22:06.882Z,94.10
2017-10-03T18:24:33.324Z,94.00
2017-10-03T18:26:59.799Z,94.10
2017-10-03T18:29:26.203Z,94.20
2017-10-03T18:31:52.655Z,94.50
2017-10-03T18:34:19.180Z,94.80
2017-10-03T18:36:45.594Z,95.20
2017-10-03T18:39:12.790Z,95.80
2017-10-03T18:41:39.231Z,95.80
2017-10-03T18:44:05.627Z,96.00
2017-10-03T18:46:32.018Z,96.30
2017-10-03T18:48:58.504Z,96.30
2017-10-03T18:51:25.674Z,96.30
2017-10-03T18:53:52.229Z,96.30
2017-10-03T18:56:19.387Z,96.30
2017-10-03T18:58:46.547Z,96.50
2017-10-03T19:01:13.679Z,96.00
2017-10-03T19:03:40.242Z,96.20
2017-10-03T19:06:06.648Z,96.30
2017-10-03T19:08:33.074Z,96.00
2017-10-03T19:10:59.666Z,96.40
2017-10-03T19:13:26.118Z,96.60
2017-10-03T19:15:52.623Z,96.60
2017-10-03T19:18:20.563Z,97.10
2017-10-03T19:20:47.022Z,97.10
2017-10-03T19:23:13.500Z,97.10
2017-10-03T19:25:39.929Z,97.30
2017-10-03T19:28:06.389Z,97.40
2017-10-03T19:30:32.877Z,97.40
2017-10-03T19:32:59.334Z,97.50
2017-10-03T19:35:26.619Z,97.40
2017-10-03T19:37:53.276Z,97.40
2017-10-03T19:40:19.728Z,97.40
2017-10-03T19:42:46.167Z,97.60
2017-10-03T19:45:12.653Z,97.60
2017-10-03T19:47:39.825Z,97.80
2017-10-03T19:50:07.049Z,97.70
2017-10-03T19:52:34.258Z,97.60
2017-10-03T19:55:00.746Z,97.60
2017-10-03T19:57:27.182Z,97.40
2017-10-03T19:59:53.964Z,97.30
2017-10-03T20:02:21.160Z,97.50
2017-10-03T20:04:47.623Z,97.40
2017-10-03T20:07:14.082Z,97.60
2017-10-03T20:09:40.587Z,97.70
2017-10-03T20:12:07.040Z,97.90
2017-10-03T20:14:33.643Z,97.80
2017-10-03T20:17:00.126Z,97.90
2017-10-03T20:19:26.561Z,98.00
2017-10-03T20:21:53.059Z,98.10
2017-10-03T20:24:19.502Z,98.20
2017-10-03T20:26:45.981Z,98.70
2017-10-03T20:29:13.222Z,99.10
2017-10-03T20:31:40.471Z,99.40
2017-10-03T20:34:06.926Z,99.30
2017-10-03T20:36:33.314Z,99.60
2017-10-03T20:38:59.782Z,99.80
2017-10-03T20:41:26.203Z,99.80
2017-10-03T20:43:52.653Z,99.90
2017-10-03T20:46:19.050Z,99.90
2017-10-03T20:48:46.279Z,99.90
2017-10-03T20:51:12.718Z,99.90
2017-10-03T20:53:39.443Z,99.70
2017-10-03T20:56:05.913Z,99.50
2017-10-03T20:58:39.855Z,99.50
2017-10-03T21:01:07.054Z,99.90
2017-10-03T21:03:33.551Z,99.80
2017-10-03T21:05:59.992Z,99.90
2017-10-03T21:08:26.486Z,99.90
2017-10-03T21:10:53.643Z,99.90
2017-10-03T21:13:20.797Z,99.90
2017-10-03T21:15:47.225Z,99.90
2017-10-03T21:18:14.755Z,99.80
2017-10-03T21:20:41.279Z,99.90
2017-10-03T21:23:07.722Z,99.20
2017-10-03T21:25:34.214Z,99.20
2017-10-03T21:28:01.414Z,99.10
2017-10-03T21:30:27.907Z,99.20
2017-10-03T21:32:55.170Z,99.10
2017-10-03T21:35:21.614Z,99.10
2017-10-03T21:37:48.031Z,99.00
2017-10-03T21:40:14.615Z,99.00
2017-10-03T21:42:53.389Z,98.80
2017-10-03T21:45:20.599Z,98.90
2017-10-03T21:47:47.065Z,98.90
2017-10-03T21:50:13.643Z,98.90
2017-10-03T21:52:40.800Z,98.80
2017-10-03T21:55:07.510Z,98.80
2017-10-03T21:57:34.702Z,99.00
2017-10-03T22:00:01.226Z,99.00
2017-10-03T22:02:27.707Z,99.00
2017-10-03T22:04:54.833Z,99.00
2017-10-03T22:07:21.252Z,99.00
2017-10-03T22:09:47.774Z,99.00
2017-10-03T22:12:14.242Z,98.90
2017-10-03T22:14:40.788Z,99.00
2017-10-03T22:17:07.336Z,99.00
2017-10-03T22:19:33.762Z,99.10
2017-10-03T22:22:00.475Z,99.20
2017-10-03T22:24:26.906Z,99.10
2017-10-03T22:26:53.369Z,99.60
2017-10-03T22:29:20.570Z,99.00
2017-10-03T22:31:47.018Z,99.00
2017-10-03T22:34:13.443Z,99.10
2017-10-03T22:36:39.849Z,99.10
2017-10-03T22:39:06.993Z,99.00
2017-10-03T22:41:34.171Z,99.00
2017-10-03T22:44:01.910Z,99.00
2017-10-03T22:46:28.397Z,98.90
2017-10-03T22:48:54.835Z,98.90
2017-10-03T22:51:27.966Z,98.90
2017-10-03T22:53:55.262Z,98.90
2017-10-03T22:56:22.478Z,98.90
2017-10-03T22:58:48.976Z,98.80
2017-10-03T23:01:15.366Z,98.90
2017-10-03T23:03:41.810Z,98.90
2017-10-03T23:06:08.276Z,98.80
2017-10-03T23:08:34.794Z,98.80
2017-10-03T23:11:01.982Z,98.50
2017-10-03T23:13:28.439Z,98.50
2017-10-03T23:15:54.827Z,98.30
2017-10-03T23:18:21.288Z,98.20
2017-10-03T23:20:47.767Z,98.10
2017-10-03T23:23:14.187Z,97.90
2017-10-03T23:25:40.582Z,97.70
2017-10-03T23:28:07.009Z,97.70
2017-10-03T23:30:33.455Z,97.60
2017-10-03T23:32:59.906Z,97.40
2017-10-03T23:35:27.096Z,97.40
2017-10-03T23:37:54.251Z,97.40
2017-10-03T23:40:20.762Z,97.20
2017-10-03T23:42:47.127Z,97.70
2017-10-03T23:45:13.543Z,97.40
2017-10-03T23:47:39.934Z,97.50
2017-10-03T23:50:06.566Z,97.70
2017-10-03T23:52:33.015Z,97.90
2017-10-03T23:55:00.246Z,97.80
2017-10-03T23:57:27.246Z,97.90
2017-10-03T23:59:53.715Z,97.90
